Time;durP1;ratioP1;P1;durP2;ratioP2;P2;SDS_P1;SDS_P2;PMS_P1;PMS_P2;Temp;Humidity;BMP_temperature;BMP_pressure;BME280_temperature;BME280_humidity;BME280_pressure;Samples;Min_cycle;Max_cycle;Signal;HPM_P1;HPM_P2
2024/02/02 00:02:17;;;;;;;25.42;4.15;;;;;;;1.54;63.12;102706.53;4939846;28;20494;-70
2024/02/02 00:04:45;;;;;;;16.55;3.95;;;;;;;1.60;63.22;102721.31;4936706;28;20047;-68
2024/02/02 00:07:16;;;;;;;20.98;5.22;;;;;;;2.27;61.41;102711.84;4929312;28;20039;-67
2024/02/02 00:09:41;;;;;;;21.13;5.00;;;;;;;2.35;60.81;102716.34;4953620;28;20113;-66
2024/02/02 00:12:11;;;;;;;26.08;5.00;;;;;;;1.73;62.75;102718.22;4931374;28;20043;-65
2024/02/02 00:14:40;;;;;;;22.17;4.15;;;;;;;2.00;62.41;102706.84;4929414;28;20514;-63
2024/02/02 00:17:05;;;;;;;13.23;4.25;;;;;;;1.94;62.38;102711.03;4930592;28;20053;-67
2024/02/02 00:19:32;;;;;;;29.70;5.25;;;;;;;1.68;63.39;102705.19;4918300;28;20031;-69
2024/02/02 00:21:59;;;;;;;18.67;4.18;;;;;;;2.07;62.42;102703.59;4960592;28;20045;-66
2024/02/02 00:24:25;;;;;;;19.85;3.85;;;;;;;2.12;62.10;102712.31;4934775;28;20390;-68
2024/02/02 00:26:50;;;;;;;26.33;3.97;;;;;;;1.56;63.34;102710.03;4930582;28;20050;-70
2024/02/02 00:29:17;;;;;;;16.73;3.53;;;;;;;1.77;63.47;102709.72;4939144;28;20503;-67
2024/02/02 00:31:42;;;;;;;27.58;5.60;;;;;;;2.19;61.90;102714.22;4940896;28;20039;-70
2024/02/02 00:34:07;;;;;;;15.43;3.42;;;;;;;2.28;61.40;102713.56;4923161;28;20058;-67
2024/02/02 00:36:33;;;;;;;26.50;3.95;;;;;;;2.53;60.78;102715.00;4922378;28;21603;-69
2024/02/02 00:38:59;;;;;;;22.98;4.70;;;;;;;2.41;60.78;102710.44;4930587;28;20045;-67
2024/02/02 00:41:27;;;;;;;16.67;4.43;;;;;;;1.77;62.86;102708.84;4942689;28;20035;-67
2024/02/02 00:43:57;;;;;;;14.75;4.32;;;;;;;2.04;62.06;102713.84;4923813;28;20145;-68
2024/02/02 00:46:24;;;;;;;19.55;4.78;;;;;;;2.21;61.92;102716.84;4954865;28;20046;-68
2024/02/02 00:48:53;;;;;;;21.02;5.05;;;;;;;2.44;61.38;102714.81;4928360;28;20045;-68
2024/02/02 00:51:23;;;;;;;21.63;4.43;;;;;;;2.20;61.88;102721.13;4934220;28;20042;-69
2024/02/02 00:53:48;;;;;;;21.55;4.70;;;;;;;1.79;63.71;102713.22;4950061;28;20108;-68
2024/02/02 00:56:19;;;;;;;16.33;5.15;;;;;;;1.85;62.95;102707.34;4931941;28;20038;-67
2024/02/02 00:58:47;;;;;;;9.40;3.97;;;;;;;2.25;61.99;102701.47;4937968;28;20117;-67
2024/02/02 01:01:15;;;;;;;17.75;4.07;;;;;;;2.37;61.52;102698.31;4935520;28;20286;-67
2024/02/02 01:03:43;;;;;;;19.00;4.85;;;;;;;2.24;61.46;102710.06;4930928;28;20054;-67
2024/02/02 01:06:08;;;;;;;24.75;4.95;;;;;;;2.06;62.02;102699.28;4925350;28;20123;-67
2024/02/02 01:08:34;;;;;;;19.23;5.18;;;;;;;2.02;62.01;102695.75;4929231;28;20069;-68
2024/02/02 01:11:01;;;;;;;20.35;4.45;;;;;;;2.47;60.97;102689.09;4933179;28;21366;-67
2024/02/02 01:13:26;;;;;;;20.13;4.50;;;;;;;2.33;60.98;102697.38;4936600;28;20039;-68
2024/02/02 01:15:52;;;;;;;17.55;4.97;;;;;;;2.30;60.78;102696.41;4953350;28;20528;-68
2024/02/02 01:18:23;;;;;;;12.80;3.95;;;;;;;2.17;61.81;102695.25;4944494;28;20035;-68
2024/02/02 01:20:50;;;;;;;15.50;4.60;;;;;;;2.01;62.12;102690.56;4954536;28;20046;-67
2024/02/02 01:23:19;;;;;;;18.25;6.97;;;;;;;2.15;61.40;102689.16;4939497;28;20031;-69
2024/02/02 01:25:52;;;;;;;12.50;3.22;;;;;;;2.33;60.95;102687.06;4938380;28;20545;-68
2024/02/02 01:28:20;;;;;;;22.95;5.63;;;;;;;2.20;61.71;102695.34;4939290;28;20070;-68
2024/02/02 01:30:45;;;;;;;24.90;5.22;;;;;;;2.03;61.58;102696.63;4938672;28;20047;-69
2024/02/02 01:33:20;;;;;;;20.30;5.65;;;;;;;2.13;61.48;102683.09;4936688;28;20042;-73
2024/02/02 01:35:49;;;;;;;29.95;5.53;;;;;;;2.43;61.08;102676.94;4928837;28;20046;-69
2024/02/02 01:38:14;;;;;;;22.35;4.63;;;;;;;2.29;61.31;102679.22;4895126;28;20194;-68
2024/02/02 01:40:41;;;;;;;19.23;3.88;;;;;;;2.72;60.17;102669.84;4892155;28;20042;-72
2024/02/02 01:43:06;;;;;;;12.35;3.30;;;;;;;2.74;60.06;102671.59;4905642;28;20595;-69
2024/02/02 01:45:34;;;;;;;14.05;3.70;;;;;;;2.25;61.39;102673.09;4932421;28;20043;-68
2024/02/02 01:48:00;;;;;;;12.52;3.42;;;;;;;2.46;60.03;102682.16;4900295;28;20074;-70
2024/02/02 01:50:26;;;;;;;22.98;4.43;;;;;;;1.97;62.17;102678.41;4920751;28;20122;-69
2024/02/02 01:52:54;;;;;;;32.42;5.10;;;;;;;2.41;61.09;102660.53;4916921;28;20043;-69
2024/02/02 01:55:22;;;;;;;24.45;6.03;;;;;;;1.99;62.58;102663.84;4920928;28;20047;-69
2024/02/02 01:57:50;;;;;;;9.95;3.80;;;;;;;2.37;60.92;102650.97;4919535;28;20414;-69
2024/02/02 02:00:18;;;;;;;15.05;3.05;;;;;;;2.38;60.80;102642.38;4917003;28;21178;-68
2024/02/02 02:02:44;;;;;;;17.27;3.28;;;;;;;2.75;60.00;102642.34;4920851;28;20747;-69
2024/02/02 02:05:12;;;;;;;21.50;3.13;;;;;;;2.66;60.00;102631.84;4908253;28;20050;-68
2024/02/02 02:07:42;;;;;;;27.20;4.32;;;;;;;2.52;60.95;102641.88;4949709;28;20606;-69
2024/02/02 02:10:12;;;;;;;16.17;4.72;;;;;;;2.31;60.60;102634.53;4914501;28;20410;-69
2024/02/02 02:12:37;;;;;;;19.15;4.68;;;;;;;2.74;60.12;102621.69;4928343;28;20050;-70
2024/02/02 02:15:06;;;;;;;15.80;3.97;;;;;;;2.77;60.17;102614.84;4915763;28;20050;-70
2024/02/02 02:17:31;;;;;;;16.15;3.53;;;;;;;2.19;61.49;102621.34;4936984;28;20102;-68
2024/02/02 02:20:00;;;;;;;14.18;2.80;;;;;;;2.73;59.80;102618.25;4916386;28;20040;-70
2024/02/02 02:22:26;;;;;;;19.17;3.00;;;;;;;1.94;62.50;102622.47;4924073;28;20039;-69
2024/02/02 02:24:54;;;;;;;8.18;3.28;;;;;;;2.37;61.60;102622.59;4924424;28;20053;-69
2024/02/02 02:27:19;;;;;;;12.77;3.63;;;;;;;2.71;60.33;102612.16;4916996;28;20031;-70
2024/02/02 02:29:44;;;;;;;14.95;3.35;;;;;;;2.65;60.51;102612.03;4909994;28;20865;-68
2024/02/02 02:32:13;;;;;;;21.42;4.07;;;;;;;2.72;60.42;102603.56;4906052;28;20461;-69
2024/02/02 02:34:38;;;;;;;16.02;3.22;;;;;;;2.71;60.49;102604.41;4919768;28;20133;-69
2024/02/02 02:37:04;;;;;;;20.27;3.55;;;;;;;2.35;61.16;102604.50;4930861;28;20122;-67
2024/02/02 02:39:29;;;;;;;27.40;3.47;;;;;;;2.12;61.89;102599.69;4920500;28;20055;-67
2024/02/02 02:42:02;;;;;;;15.13;3.80;;;;;;;2.42;61.34;102596.06;4933420;28;20091;-67
2024/02/02 02:44:35;;;;;;;19.73;3.28;;;;;;;2.76;60.34;102599.34;4918522;28;20383;-68
2024/02/02 02:47:03;;;;;;;13.35;2.58;;;;;;;2.73;60.45;102600.16;4916349;28;20062;-68
2024/02/02 02:49:31;;;;;;;11.77;4.25;;;;;;;2.05;62.13;102607.25;4928628;28;20039;-68
2024/02/02 02:51:56;;;;;;;27.95;3.45;;;;;;;2.59;60.98;102606.72;4920389;28;20050;-68
2024/02/02 02:54:24;;;;;;;14.65;3.17;;;;;;;2.06;61.93;102604.69;4897474;28;20043;-68
2024/02/02 02:56:52;;;;;;;21.38;4.10;;;;;;;2.62;60.74;102605.91;4887879;28;20031;-67
2024/02/02 02:59:18;;;;;;;24.50;4.03;;;;;;;2.35;60.96;102607.06;4882315;28;20062;-68
2024/02/02 03:01:47;;;;;;;31.65;4.57;;;;;;;2.35;61.44;102587.31;4881969;28;21073;-66
2024/02/02 03:04:13;;;;;;;25.20;4.07;;;;;;;2.56;60.84;102594.63;4878999;28;20039;-68
2024/02/02 03:06:41;;;;;;;26.20;4.32;;;;;;;2.48;61.32;102582.41;4915102;28;20522;-67
2024/02/02 03:09:06;;;;;;;21.25;5.60;;;;;;;2.62;60.27;102585.25;4916644;28;20035;-71
2024/02/02 03:11:36;;;;;;;19.08;3.22;;;;;;;2.86;60.18;102579.72;4935859;28;20429;-67
2024/02/02 03:14:04;;;;;;;16.67;3.95;;;;;;;2.66;60.76;102571.59;4933311;28;20403;-65
2024/02/02 03:16:29;;;;;;;16.92;4.10;;;;;;;2.77;60.09;102565.78;4937660;28;20046;-70
2024/02/02 03:18:55;;;;;;;24.77;4.55;;;;;;;2.44;61.30;102550.50;4954284;28;20065;-73
2024/02/02 03:21:20;;;;;;;10.80;4.43;;;;;;;2.19;61.58;102543.06;4938248;28;21290;-70
2024/02/02 03:23:46;;;;;;;22.63;4.03;;;;;;;2.52;61.14;102537.75;4932368;28;20125;-73
2024/02/02 03:26:16;;;;;;;19.08;5.05;;;;;;;2.40;61.59;102538.38;4937642;28;20049;-73
2024/02/02 03:28:41;;;;;;;17.15;3.75;;;;;;;2.90;60.16;102532.47;4947124;28;20056;-70
2024/02/02 03:31:12;;;;;;;18.05;4.15;;;;;;;2.96;59.93;102535.16;4922156;28;20038;-73
2024/02/02 03:33:40;;;;;;;24.67;3.90;;;;;;;2.55;61.06;102535.22;4939339;28;20079;-70
2024/02/02 03:36:05;;;;;;;21.45;4.10;;;;;;;2.86;60.50;102528.09;4948273;28;20035;-70
2024/02/02 03:38:36;;;;;;;13.95;3.85;;;;;;;2.77;60.43;102528.78;4922493;28;20031;-71
2024/02/02 03:41:07;;;;;;;21.42;3.95;;;;;;;2.90;59.87;102510.09;4947065;28;20092;-72
2024/02/02 03:43:33;;;;;;;13.30;4.32;;;;;;;2.09;62.12;102505.91;4935240;28;20706;-71
2024/02/02 03:46:00;;;;;;;24.30;4.03;;;;;;;2.41;61.64;102500.53;4936451;28;20090;-69
2024/02/02 03:48:26;;;;;;;29.30;4.78;;;;;;;2.06;62.02;102492.91;4936616;28;20030;-67
2024/02/02 03:50:53;;;;;;;27.40;5.50;;;;;;;2.26;61.82;102496.78;4936993;28;20042;-69
2024/02/02 03:53:21;;;;;;;9.05;3.22;;;;;;;2.49;61.27;102496.41;4927089;28;20114;-70
2024/02/02 03:55:50;;;;;;;15.25;3.58;;;;;;;2.45;61.15;102502.34;4936880;28;20133;-70
2024/02/02 03:58:18;;;;;;;19.00;4.88;;;;;;;2.43;61.26;102491.13;4934722;28;20060;-71
2024/02/02 04:00:46;;;;;;;22.63;5.40;;;;;;;2.68;60.44;102493.31;4953925;28;20573;-73
2024/02/02 04:03:11;;;;;;;23.27;5.40;;;;;;;2.79;60.58;102490.06;4931386;28;20536;-66
2024/02/02 04:05:39;;;;;;;17.15;3.92;;;;;;;2.73;60.75;102483.97;4936187;28;20027;-66
2024/02/02 04:08:07;;;;;;;13.60;4.38;;;;;;;2.76;59.98;102481.44;4925276;28;20075;-67
2024/02/02 04:10:37;;;;;;;21.40;4.75;;;;;;;2.51;60.72;102466.31;4937556;28;20580;-66
2024/02/02 04:13:03;;;;;;;12.65;3.80;;;;;;;2.48;60.86;102448.19;4930551;28;20029;-66
2024/02/02 04:15:28;;;;;;;10.10;3.72;;;;;;;2.30;61.77;102431.50;4931519;28;20677;-68
2024/02/02 04:17:54;;;;;;;18.38;4.25;;;;;;;2.46;61.11;102429.22;4937210;28;20035;-67
2024/02/02 04:20:22;;;;;;;10.18;3.05;;;;;;;2.60;60.79;102451.03;4928595;28;20043;-66
2024/02/02 04:22:52;;;;;;;18.90;4.90;;;;;;;2.53;60.79;102441.41;4935276;28;20093;-67
2024/02/02 04:25:17;;;;;;;11.02;4.70;;;;;;;2.59;60.82;102443.25;4938807;28;20075;-70
2024/02/02 04:27:43;;;;;;;19.55;5.85;;;;;;;2.35;61.70;102442.81;4934221;28;20130;-70
2024/02/02 04:30:09;;;;;;;16.60;4.47;;;;;;;2.47;61.50;102438.72;4947093;28;20078;-69
2024/02/02 04:32:34;;;;;;;17.27;5.43;;;;;;;2.82;60.27;102443.63;4952116;28;20517;-67
2024/02/02 04:35:11;;;;;;;21.02;4.25;;;;;;;2.45;61.46;102448.16;4931311;28;20192;-69
2024/02/02 04:37:41;;;;;;;29.17;5.35;;;;;;;3.06;59.52;102438.88;4954311;28;20031;-70
2024/02/02 04:40:09;;;;;;;21.60;5.65;;;;;;;2.61;60.89;102428.66;4933030;28;20727;-69
2024/02/02 04:42:34;;;;;;;18.25;4.68;;;;;;;2.77;60.24;102436.69;4936593;28;20503;-69
2024/02/02 04:45:02;;;;;;;14.55;3.75;;;;;;;2.80;60.75;102440.16;4942858;28;20057;-69
2024/02/02 04:47:28;;;;;;;23.15;5.63;;;;;;;2.77;60.40;102441.84;4951859;28;20588;-69
2024/02/02 04:49:53;;;;;;;16.05;5.93;;;;;;;2.60;60.83;102438.13;4933359;28;20050;-70
2024/02/02 04:52:19;;;;;;;23.00;6.00;;;;;;;2.61;60.93;102432.09;4937701;28;20039;-70
2024/02/02 04:55:02;;;;;;;17.97;5.47;;;;;;;2.99;59.94;102416.38;4937900;28;20056;-70
2024/02/02 04:57:28;;;;;;;19.20;6.32;;;;;;;2.55;61.47;102413.91;4895890;28;20077;-70
2024/02/02 04:59:54;;;;;;;21.33;5.47;;;;;;;2.93;60.04;102413.69;4921183;28;20964;-66
2024/02/02 05:02:24;;;;;;;15.05;4.97;;;;;;;2.91;60.39;102392.13;4919750;28;20058;-70
2024/02/02 05:04:52;;;;;;;18.42;5.68;;;;;;;2.62;60.71;102400.25;4902226;28;20067;-67
2024/02/02 05:07:20;;;;;;;18.27;5.82;;;;;;;2.80;60.34;102394.56;4913430;28;20090;-68
2024/02/02 05:09:46;;;;;;;21.52;5.53;;;;;;;2.55;61.34;102394.16;4941124;28;20054;-68
2024/02/02 05:12:15;;;;;;;17.40;4.35;;;;;;;2.47;61.46;102375.06;4939685;28;20027;-67
2024/02/02 05:14:43;;;;;;;14.15;5.60;;;;;;;2.71;60.90;102382.38;4942749;28;20050;-68
2024/02/02 05:17:19;;;;;;;21.50;6.22;;;;;;;2.39;61.66;102380.94;4953482;28;20538;-69
2024/02/02 05:19:45;;;;;;;11.20;5.28;;;;;;;2.36;61.61;102376.59;4941628;28;20170;-69
2024/02/02 05:22:13;;;;;;;16.55;5.93;;;;;;;2.81;60.57;102385.97;4939933;28;20037;-70
2024/02/02 05:24:39;;;;;;;21.27;6.93;;;;;;;2.41;61.05;102382.69;4928699;28;20047;-70
2024/02/02 05:27:04;;;;;;;24.23;6.85;;;;;;;2.38;61.83;102374.00;4960132;28;20039;-69
2024/02/02 05:29:35;;;;;;;18.10;5.93;;;;;;;2.63;60.88;102372.75;4929865;28;21223;-70
2024/02/02 05:32:03;;;;;;;27.00;8.02;;;;;;;2.85;60.43;102376.56;4968643;28;20200;-71
2024/02/02 05:34:31;;;;;;;17.10;5.45;;;;;;;1.71;63.24;102365.00;4937423;28;21385;-69
2024/02/02 05:36:56;;;;;;;26.92;5.50;;;;;;;2.61;60.96;102358.94;4943977;28;20049;-69
2024/02/02 05:39:26;;;;;;;16.70;5.63;;;;;;;2.69;60.42;102358.25;4938123;28;20038;-68
2024/02/02 05:41:57;;;;;;;18.80;6.07;;;;;;;2.39;61.26;102348.25;4942403;28;20517;-70
2024/02/02 05:44:22;;;;;;;23.33;7.18;;;;;;;2.46;61.79;102355.25;4928353;28;20043;-70
2024/02/02 05:47:00;;;;;;;14.57;6.15;;;;;;;2.93;60.23;102350.00;4971244;28;20058;-68
2024/02/02 05:49:29;;;;;;;18.92;5.70;;;;;;;2.40;60.86;102349.09;4937573;28;20077;-67
2024/02/02 05:51:54;;;;;;;27.08;6.13;;;;;;;2.47;61.43;102358.72;4943813;28;20516;-66
2024/02/02 05:54:19;;;;;;;11.50;4.80;;;;;;;2.56;61.17;102364.03;4927416;28;20027;-66
2024/02/02 05:56:46;;;;;;;28.00;6.75;;;;;;;2.77;60.84;102364.38;4942276;28;20185;-67
2024/02/02 05:59:14;;;;;;;22.95;6.32;;;;;;;2.85;60.19;102358.50;4938414;28;20114;-68
2024/02/02 06:01:42;;;;;;;19.55;6.22;;;;;;;1.96;61.88;102357.75;4938603;28;20047;-67
2024/02/02 06:04:07;;;;;;;14.85;5.50;;;;;;;2.35;61.45;102359.34;4938261;28;20031;-67
2024/02/02 06:06:33;;;;;;;22.95;5.78;;;;;;;2.69;60.84;102353.06;4932978;28;20612;-67
2024/02/02 06:08:58;;;;;;;30.00;6.60;;;;;;;1.96;62.77;102350.03;4939212;28;20039;-66
2024/02/02 06:11:26;;;;;;;22.77;6.25;;;;;;;2.80;60.05;102349.78;4925990;28;20043;-67
2024/02/02 06:13:57;;;;;;;20.88;5.70;;;;;;;2.60;60.66;102345.19;4930055;28;20244;-70
2024/02/02 06:16:27;;;;;;;14.70;5.05;;;;;;;2.67;60.38;102347.00;4949737;28;20309;-70
2024/02/02 06:18:54;;;;;;;17.95;5.47;;;;;;;2.19;62.01;102337.56;4940692;28;20406;-70
2024/02/02 06:21:22;;;;;;;29.88;6.35;;;;;;;2.89;60.47;102324.09;4941444;28;20146;-70
2024/02/02 06:23:52;;;;;;;18.52;5.30;;;;;;;2.94;59.39;102332.81;4937649;28;20167;-70
2024/02/02 06:26:26;;;;;;;15.57;5.20;;;;;;;2.67;60.37;102335.81;4934865;28;20131;-70
2024/02/02 06:28:51;;;;;;;23.95;4.88;;;;;;;2.30;61.75;102336.03;4943194;28;20054;-70
2024/02/02 06:31:17;;;;;;;17.88;5.35;;;;;;;2.54;60.68;102334.75;4936463;28;20899;-71
2024/02/02 06:33:45;;;;;;;22.33;5.18;;;;;;;2.09;62.02;102333.94;4938931;28;20027;-70
2024/02/02 06:36:13;;;;;;;16.25;4.50;;;;;;;2.65;60.45;102333.22;4934579;28;20046;-70
2024/02/02 06:38:46;;;;;;;14.50;4.43;;;;;;;2.42;60.60;102314.75;4941973;28;20054;-70
2024/02/02 06:41:13;;;;;;;19.95;6.13;;;;;;;2.63;60.30;102319.41;4929032;28;20115;-70
2024/02/02 06:43:39;;;;;;;15.90;5.10;;;;;;;2.37;61.16;102312.94;4967400;28;20497;-70
2024/02/02 06:46:04;;;;;;;20.58;5.25;;;;;;;2.27;61.40;102310.19;4934715;28;20047;-70
2024/02/02 06:48:35;;;;;;;23.70;5.05;;;;;;;2.68;60.27;102302.25;4926672;28;20122;-71
2024/02/02 06:51:07;;;;;;;22.20;5.20;;;;;;;2.37;60.97;102307.78;4938369;28;20446;-70
2024/02/02 06:53:33;;;;;;;;;;;;;;;2.35;60.88;102295.72;4935330;28;20039;-71
2024/02/02 06:55:58;;;;;;;20.73;4.70;;;;;;;2.57;60.51;102299.50;4940454;28;20563;-70
2024/02/02 06:58:42;;;;;;;14.65;5.30;;;;;;;2.62;60.62;102312.47;4930845;28;21223;-71
2024/02/02 07:01:10;;;;;;;20.25;4.57;;;;;;;2.42;60.60;102311.28;4937843;28;20541;-71
2024/02/02 07:03:39;;;;;;;20.55;5.43;;;;;;;2.24;61.80;102302.41;4933918;28;20039;-71
2024/02/02 07:06:08;;;;;;;20.73;5.80;;;;;;;2.90;59.52;102307.78;4937965;28;20082;-70
2024/02/02 07:08:33;;;;;;;27.15;6.05;;;;;;;2.43;61.23;102293.25;4933502;28;20039;-70
2024/02/02 07:11:12;;;;;;;21.42;5.60;;;;;;;2.54;60.47;102289.16;4939869;28;20122;-71
2024/02/02 07:13:52;;;;;;;16.83;4.78;;;;;;;2.73;59.48;102290.31;4931053;28;20055;-71
2024/02/02 07:16:29;;;;;;;19.67;3.67;;;;;;;3.10;58.81;102285.69;4933533;28;20047;-71
2024/02/02 07:19:00;;;;;;;23.95;3.53;;;;;;;2.73;59.64;102286.84;4938714;28;20074;-71
2024/02/02 07:21:34;;;;;;;23.98;4.00;;;;;;;2.75;59.46;102290.31;4924306;28;20046;-72
2024/02/02 07:24:02;;;;;;;28.23;3.00;;;;;;;2.64;59.93;102282.41;4940104;28;20068;-72
2024/02/02 07:26:38;;;;;;;19.13;2.63;;;;;;;2.43;60.82;102279.50;4932586;28;20043;-69
2024/02/02 07:29:11;;;;;;;26.77;3.20;;;;;;;2.23;60.85;102267.13;4941361;28;20031;-68
2024/02/02 07:31:44;;;;;;;20.80;3.30;;;;;;;2.89;59.12;102267.28;4933560;28;20031;-67
2024/02/02 07:34:35;;;;;;;22.27;3.13;;;;;;;2.62;59.92;102271.19;4932479;28;20066;-67
2024/02/02 07:37:06;;;;;;;6.10;1.77;;;;;;;3.11;58.66;102268.44;4919318;28;20043;-67
2024/02/02 07:39:31;;;;;;;24.17;3.43;;;;;;;2.61;59.56;102278.94;4898051;28;20555;-68
2024/02/02 07:42:00;;;;;;;13.10;2.08;;;;;;;2.87;59.06;102261.25;4906776;28;20038;-68
2024/02/02 07:44:28;;;;;;;21.52;2.63;;;;;;;2.95;58.82;102275.97;4903651;28;20031;-67
2024/02/02 07:46:54;;;;;;;20.88;2.53;;;;;;;2.99;58.83;102274.31;4916234;28;20472;-67
2024/02/02 07:49:20;;;;;;;9.80;2.13;;;;;;;2.88;58.64;102281.06;4885722;28;20046;-68
2024/02/02 07:51:47;;;;;;;19.73;2.78;;;;;;;2.12;60.72;102268.66;4894105;28;20410;-67
2024/02/02 07:54:18;;;;;;;16.33;2.88;;;;;;;2.93;58.98;102266.47;4898354;28;20307;-67
2024/02/02 07:56:43;;;;;;;16.08;1.90;;;;;;;2.51;60.19;102252.09;4872610;28;20125;-69
2024/02/02 07:59:12;;;;;;;16.25;2.67;;;;;;;3.00;59.33;102257.09;4914458;28;20437;-69
2024/02/02 08:01:39;;;;;;;14.15;3.65;;;;;;;2.87;59.13;102253.50;4937160;28;20047;-67
2024/02/02 08:04:05;;;;;;;19.80;2.28;;;;;;;3.45;57.46;102251.72;4938249;28;20090;-67
2024/02/02 08:06:30;;;;;;;18.45;1.88;;;;;;;2.87;58.88;102253.50;4947798;28;20509;-67
2024/02/02 08:08:57;;;;;;;10.13;1.83;;;;;;;3.46;57.41;102258.59;4939420;28;20042;-68
2024/02/02 08:11:28;;;;;;;21.35;2.22;;;;;;;3.33;57.85;102259.28;4936786;28;20051;-67
2024/02/02 08:13:54;;;;;;;22.27;2.95;;;;;;;3.22;58.12;102253.09;4933371;28;20031;-66
2024/02/02 08:16:19;;;;;;;19.52;2.78;;;;;;;3.58;56.94;102258.75;4926470;28;20109;-66
2024/02/02 08:18:45;;;;;;;20.80;2.35;;;;;;;3.43;57.28;102253.41;4932180;28;20557;-67
2024/02/02 08:21:21;;;;;;;16.27;2.40;;;;;;;3.21;58.01;102246.22;4934630;28;20039;-67
2024/02/02 08:23:52;;;;;;;12.80;2.45;;;;;;;3.19;58.23;102234.13;4930005;28;20053;-67
2024/02/02 08:26:18;;;;;;;24.83;3.60;;;;;;;2.86;58.42;102238.84;4959167;28;20121;-69
2024/02/02 08:28:44;;;;;;;13.57;1.95;;;;;;;3.27;57.95;102233.34;4930289;28;20052;-67
2024/02/02 08:31:09;;;;;;;15.18;1.80;;;;;;;3.21;58.32;102235.88;4933340;28;20070;-67
2024/02/02 08:33:40;;;;;;;18.10;2.42;;;;;;;3.28;58.13;102233.38;4928251;28;20074;-67
2024/02/02 08:36:09;;;;;;;13.40;1.83;;;;;;;3.59;57.35;102231.19;4937415;28;20085;-66
2024/02/02 08:38:37;;;;;;;12.35;3.05;;;;;;;3.37;58.03;102219.72;4947990;28;20057;-68
2024/02/02 08:41:10;;;;;;;26.38;3.30;;;;;;;3.16;58.33;102223.75;4935117;28;20031;-67
2024/02/02 08:43:42;;;;;;;12.25;2.15;;;;;;;2.99;59.03;102209.75;4931168;28;20031;-67
2024/02/02 08:46:12;;;;;;;10.70;2.20;;;;;;;2.88;59.67;102211.31;4936770;28;20063;-67
2024/02/02 08:48:41;;;;;;;20.23;2.35;;;;;;;3.46;58.41;102211.22;4932454;28;20178;-66
2024/02/02 08:51:37;;;;;;;25.38;3.67;;;;;;;3.51;57.81;102202.63;4933825;28;20135;-67
2024/02/02 08:54:05;;;;;;;11.57;3.05;;;;;;;3.37;58.76;102209.38;4934797;28;20034;-67
2024/02/02 08:56:31;;;;;;;11.13;1.75;;;;;;;3.56;57.58;102198.41;4930877;28;20549;-67
2024/02/02 08:58:57;;;;;;;14.73;2.47;;;;;;;3.17;59.09;102206.53;4931911;28;20161;-65
2024/02/02 09:01:44;;;;;;;14.90;2.42;;;;;;;3.16;59.10;102202.22;4933116;28;20047;-66
2024/02/02 09:04:34;;;;;;;18.30;2.05;;;;;;;3.05;59.82;102198.66;4930499;28;20047;-67
2024/02/02 09:07:00;;;;;;;18.70;2.67;;;;;;;3.38;59.11;102201.66;4906044;28;20239;-67
2024/02/02 09:09:26;;;;;;;19.10;4.88;;;;;;;3.18;59.53;102206.56;4916371;28;20240;-69
2024/02/02 09:11:56;;;;;;;15.75;2.47;;;;;;;2.84;60.70;102217.28;4901291;28;20130;-67
2024/02/02 09:14:24;;;;;;;19.60;3.72;;;;;;;2.90;60.24;102196.72;4882562;28;20202;-68
2024/02/02 09:16:52;;;;;;;19.98;3.40;;;;;;;3.38;59.32;102216.28;4945001;28;20077;-66
2024/02/02 09:19:45;;;;;;;22.48;2.53;;;;;;;3.14;59.72;102220.28;4934813;28;20066;-67
2024/02/02 09:22:15;;;;;;;14.13;2.35;;;;;;;3.19;60.05;102218.63;4936311;28;20039;-67
2024/02/02 09:24:49;;;;;;;16.58;3.08;;;;;;;3.22;59.52;102235.00;4927372;28;20047;-67
2024/02/02 09:27:32;;;;;;;13.30;2.55;;;;;;;3.40;59.48;102224.91;4936668;28;20043;-66
2024/02/02 09:30:01;;;;;;;16.75;2.67;;;;;;;3.08;60.69;102225.38;4927067;28;20848;-67
2024/02/02 09:32:27;;;;;;;17.33;2.35;;;;;;;3.66;59.20;102211.44;4940506;28;20026;-65
2024/02/02 09:34:59;;;;;;;13.65;2.55;;;;;;;3.99;58.41;102216.06;4931366;28;20106;-67
2024/02/02 09:37:47;;;;;;;23.17;3.55;;;;;;;3.52;58.95;102206.97;4936739;28;20046;-66
2024/02/02 09:40:35;;;;;;;14.75;3.78;;;;;;;3.93;58.52;102218.59;4936849;28;20070;-66
2024/02/02 09:43:59;;;;;;;14.38;3.42;;;;;;;3.68;59.06;102207.13;4926076;28;20058;-67
2024/02/02 09:46:50;;;;;;;23.90;3.65;;;;;;;4.12;57.78;102214.41;4925325;28;20048;-67
2024/02/02 09:49:29;;;;;;;12.63;3.53;;;;;;;3.34;60.36;102206.78;4916334;28;20035;-67
2024/02/02 09:52:32;;;;;;;13.07;3.25;;;;;;;3.53;60.08;102200.06;4909149;28;20066;-66
2024/02/02 09:55:06;;;;;;;23.27;2.67;;;;;;;3.61;60.07;102211.38;4908811;28;20047;-67
2024/02/02 09:57:38;;;;;;;14.82;2.65;;;;;;;3.76;59.46;102211.53;4919755;28;20511;-68
2024/02/02 10:00:18;;;;;;;;;;;;;;;3.65;60.17;102209.69;4914408;28;20031;-67
2024/02/02 10:02:51;;;;;;;21.98;2.55;;;;;;;3.76;60.04;102205.47;4925823;28;19929;-65
2024/02/02 10:05:32;;;;;;;21.60;4.65;;;;;;;3.61;59.45;102202.75;4915835;28;20047;-69
2024/02/02 10:08:29;;;;;;;12.55;2.80;;;;;;;3.46;60.84;102206.03;4918436;28;20059;-69
2024/02/02 10:11:49;;;;;;;16.95;3.58;;;;;;;3.82;59.41;102200.38;4914776;28;20105;-68
2024/02/02 10:14:48;;;;;;;13.50;2.97;;;;;;;3.64;60.17;102201.06;4933081;28;20094;-67
2024/02/02 10:17:57;;;;;;;19.35;3.55;;;;;;;3.38;60.85;102198.19;4911708;28;20094;-70
2024/02/02 10:20:42;;;;;;;16.88;3.08;;;;;;;3.46;60.62;102199.16;4919167;28;20110;-67
2024/02/02 10:23:41;;;;;;;19.58;3.45;;;;;;;4.57;58.14;102194.94;4919392;28;20379;-67
2024/02/02 10:26:41;;;;;;;18.70;2.78;;;;;;;3.65;60.78;102192.47;4919662;28;20046;-69
2024/02/02 10:29:09;;;;;;;16.40;3.40;;;;;;;4.04;59.84;102187.63;4925241;28;20074;-67
2024/02/02 10:32:18;;;;;;;20.10;3.65;;;;;;;3.55;61.43;102201.81;4937193;28;20088;-69
2024/02/02 10:35:13;;;;;;;12.60;2.35;;;;;;;3.37;61.53;102191.28;4709227;27;11082865;-67
2024/02/02 10:37:48;;;;;;;14.48;2.88;;;;;;;3.38;61.96;102185.25;5052109;28;20135;-66
2024/02/02 10:40:35;;;;;;;13.35;2.83;;;;;;;3.36;62.16;102185.28;5044759;28;20135;-67
2024/02/02 10:43:28;;;;;;;17.65;3.50;;;;;;;3.95;60.23;102194.47;5045087;28;20093;-67
2024/02/02 10:46:17;;;;;;;14.68;3.13;;;;;;;4.08;59.94;102186.81;5053918;28;20079;-66
2024/02/02 10:48:48;;;;;;;15.95;3.17;;;;;;;4.00;60.69;102184.16;5061383;28;20024;-67
2024/02/02 10:51:30;;;;;;;12.32;2.17;;;;;;;3.71;61.38;102184.75;5060302;28;21675;-67
2024/02/02 10:54:10;;;;;;;18.55;3.15;;;;;;;3.87;60.97;102177.13;5075719;28;20113;-67
2024/02/02 10:57:15;;;;;;;15.98;3.28;;;;;;;3.47;61.78;102180.22;5066188;28;20514;-67
2024/02/02 10:59:52;;;;;;;16.13;3.30;;;;;;;3.36;62.16;102174.94;5074282;28;20126;-66
2024/02/02 11:02:47;;;;;;;13.32;3.13;;;;;;;3.87;61.44;102175.41;5072037;28;20143;-68
2024/02/02 11:05:28;;;;;;;22.50;4.03;;;;;;;3.64;61.50;102172.63;5036694;28;20045;-66
2024/02/02 11:08:02;;;;;;;21.60;3.45;;;;;;;3.59;61.50;102157.06;5070812;28;20654;-66
2024/02/02 11:10:46;;;;;;;12.48;3.45;;;;;;;3.72;61.97;102159.78;5069078;28;20071;-66
2024/02/02 11:13:35;;;;;;;14.73;3.13;;;;;;;4.29;60.07;102155.91;5077910;28;20746;-67
2024/02/02 11:16:32;;;;;;;21.40;3.78;;;;;;;4.41;60.00;102150.81;5072925;28;20533;-67
2024/02/02 11:19:41;;;;;;;21.17;3.88;;;;;;;4.25;60.13;102167.09;5076383;28;20020;-67
2024/02/02 11:22:10;;;;;;;25.88;4.40;;;;;;;4.74;58.90;102130.25;5071653;28;20079;-66
2024/02/02 11:24:52;;;;;;;19.95;4.25;;;;;;;4.43;59.75;102136.16;5073408;28;20507;-69
2024/02/02 11:27:45;;;;;;;15.73;3.50;;;;;;;3.85;61.47;102121.94;5044759;28;20029;-67
2024/02/02 11:30:34;;;;;;;21.58;4.45;;;;;;;4.33;60.27;102123.16;5003381;28;20538;-66
2024/02/02 11:33:03;;;;;;;23.20;4.00;;;;;;;4.65;59.38;102118.13;5021211;28;20047;-67
2024/02/02 11:36:08;;;;;;;17.02;4.18;;;;;;;4.38;60.29;102119.72;5018770;28;20102;-68
2024/02/02 11:38:58;;;;;;;19.70;3.85;;;;;;;4.12;60.96;102113.50;5037636;28;20043;-66
2024/02/02 11:41:32;;;;;;;10.75;2.60;;;;;;;4.35;61.12;102113.69;5077575;28;20054;-68
2024/02/02 11:44:01;;;;;;;14.23;2.80;;;;;;;4.19;61.13;102112.72;5071160;28;20043;-67
2024/02/02 11:46:41;;;;;;;12.73;2.55;;;;;;;4.20;61.35;102109.25;5064713;28;20050;-66
2024/02/02 11:49:16;;;;;;;16.17;4.20;;;;;;;4.53;60.29;102108.59;5055737;28;20494;-69